createdAt,value
2022-10-19T16:03:37.936Z,80.38
2022-10-19T16:07:40.981Z,82.04
2022-10-19T16:11:42.935Z,83.26
2022-10-19T16:15:47.355Z,83.85
2022-10-19T16:19:49.288Z,83.88
2022-10-19T16:23:51.155Z,84.42
2022-10-19T16:27:52.858Z,83.44
2022-10-19T16:31:54.548Z,82.69
2022-10-19T16:35:56.229Z,83.44
2022-10-19T16:39:57.951Z,83.31
2022-10-19T16:43:59.835Z,82.80
2022-10-19T16:48:01.672Z,83.11
2022-10-19T16:52:03.514Z,83.11
2022-10-19T16:56:10.765Z,82.69
2022-10-19T17:00:12.862Z,81.98
2022-10-19T17:04:17.427Z,82.08
2022-10-19T17:08:19.093Z,81.79
2022-10-19T17:12:20.806Z,81.22
2022-10-19T17:16:24.498Z,81.53
2022-10-19T17:20:26.233Z,82.07
2022-10-19T17:24:27.894Z,81.33
2022-10-19T17:28:30.023Z,81.55
2022-10-19T17:32:31.782Z,81.35
2022-10-19T17:41:13.265Z,81.62
2022-10-19T17:45:14.969Z,81.65
2022-10-19T17:49:17.374Z,81.67
2022-10-19T17:53:19.163Z,82.09
2022-10-19T17:57:20.915Z,82.04
2022-10-19T18:01:23.676Z,82.01
2022-10-19T18:05:25.346Z,81.83
2022-10-19T18:09:27.040Z,81.61
2022-10-19T18:13:29.614Z,81.80
2022-10-19T18:17:31.417Z,82.07
2022-10-19T18:21:38.576Z,81.69
2022-10-19T18:25:53.461Z,82.33
2022-10-19T18:29:55.825Z,82.45
2022-10-19T18:34:02.621Z,82.34
2022-10-19T18:38:05.264Z,82.19
2022-10-19T18:42:07.056Z,82.18
2022-10-19T18:46:09.616Z,82.25
2022-10-19T18:50:13.041Z,82.35
2022-10-19T18:54:14.746Z,82.39
2022-10-19T18:58:16.426Z,82.59
2022-10-19T19:02:22.615Z,82.09
2022-10-19T19:06:29.798Z,82.15
2022-10-19T19:10:31.474Z,82.38
2022-10-19T19:14:33.412Z,82.26
2022-10-19T19:18:35.658Z,82.19
2022-10-19T19:22:37.609Z,82.12
2022-10-19T19:26:41.952Z,82.44
2022-10-19T19:30:45.633Z,82.63
2022-10-19T19:34:50.120Z,82.24
2022-10-19T19:38:56.100Z,82.47
2022-10-19T19:42:57.762Z,82.28
2022-10-19T19:47:00.832Z,82.85
2022-10-19T19:51:02.645Z,83.00
2022-10-19T19:55:04.658Z,82.73
2022-10-19T19:59:06.425Z,82.74
2022-10-19T20:03:10.981Z,82.76
2022-10-19T20:07:12.661Z,82.83
2022-10-19T20:11:16.253Z,83.17
2022-10-19T20:15:19.079Z,83.50
2022-10-19T20:19:20.762Z,83.33
2022-10-19T20:23:22.413Z,83.67
2022-10-19T20:27:24.155Z,83.87
2022-10-19T20:31:26.025Z,83.75
2022-10-19T20:35:27.739Z,83.90
2022-10-19T20:39:29.571Z,84.25
2022-10-19T20:43:31.533Z,83.97
2022-10-19T20:47:33.169Z,84.46
2022-10-19T20:51:38.799Z,84.63
2022-10-19T20:55:40.493Z,84.23
2022-10-19T20:59:44.005Z,84.31
2022-10-19T21:03:56.188Z,84.50
2022-10-19T21:07:57.958Z,84.96
2022-10-19T21:12:01.408Z,85.01
2022-10-19T21:16:10.899Z,85.00
2022-10-19T21:20:12.569Z,84.85
2022-10-19T21:24:23.550Z,85.14
2022-10-19T21:28:25.222Z,84.97
2022-10-19T21:32:26.871Z,84.88
2022-10-19T21:36:28.546Z,84.91
2022-10-19T21:40:30.232Z,84.81
2022-10-19T21:44:31.886Z,84.80
2022-10-19T21:48:34.461Z,85.17
2022-10-19T21:52:36.118Z,85.43
2022-10-19T21:56:38.266Z,85.06
2022-10-19T22:00:40.334Z,85.59
2022-10-19T22:04:42.012Z,85.21
2022-10-19T22:08:46.531Z,85.65
2022-10-19T22:12:48.379Z,85.45
2022-10-19T22:16:50.039Z,85.31
2022-10-19T22:20:51.768Z,85.87
2022-10-19T22:24:53.840Z,85.72
2022-10-19T22:28:57.108Z,85.63
2022-10-19T22:32:58.786Z,85.68
2022-10-19T22:37:00.468Z,85.62
2022-10-19T22:41:58.518Z,85.76
2022-10-19T22:46:18.821Z,86.06
2022-10-19T22:50:20.501Z,86.20
2022-10-19T22:54:22.217Z,86.31
2022-10-19T22:58:23.915Z,86.61
2022-10-19T23:02:25.561Z,86.63
2022-10-19T23:06:27.250Z,86.92
2022-10-19T23:10:28.990Z,86.95
2022-10-19T23:14:31.128Z,87.12
2022-10-19T23:18:34.539Z,87.27
2022-10-19T23:22:36.267Z,87.56
2022-10-19T23:26:38.050Z,87.56
2022-10-19T23:30:39.897Z,87.76
2022-10-19T23:34:44.485Z,87.96
2022-10-19T23:38:50.856Z,87.98
2022-10-19T23:42:52.509Z,88.57
2022-10-19T23:46:54.135Z,88.34
2022-10-19T23:50:59.808Z,88.47
2022-10-19T23:55:01.485Z,88.50
2022-10-19T23:59:03.176Z,88.47
